sensor_id;sensor_type;location;lat;lon;timestamp;P1;durP1;ratioP1;P2;durP2;ratioP2
5153;SDS011;2595;53.584;10.084;2023-03-03T00:02:03;28.17;;;15.80;;
5153;SDS011;2595;53.584;10.084;2023-03-03T00:04:29;34.20;;;17.67;;
5153;SDS011;2595;53.584;10.084;2023-03-03T00:06:54;24.70;;;15.83;;
5153;SDS011;2595;53.584;10.084;2023-03-03T00:09:20;37.40;;;19.57;;
5153;SDS011;2595;53.584;10.084;2023-03-03T00:11:46;31.60;;;16.23;;
5153;SDS011;2595;53.584;10.084;2023-03-03T00:14:21;24.93;;;15.50;;
5153;SDS011;2595;53.584;10.084;2023-03-03T00:16:59;31.80;;;16.97;;
5153;SDS011;2595;53.584;10.084;2023-03-03T00:19:25;24.53;;;15.63;;
5153;SDS011;2595;53.584;10.084;2023-03-03T00:21:51;29.47;;;15.93;;
5153;SDS011;2595;53.584;10.084;2023-03-03T00:24:21;24.90;;;15.00;;
5153;SDS011;2595;53.584;10.084;2023-03-03T00:27:00;31.87;;;16.43;;
5153;SDS011;2595;53.584;10.084;2023-03-03T00:29:37;30.57;;;15.70;;
5153;SDS011;2595;53.584;10.084;2023-03-03T00:35:47;25.43;;;15.97;;
5153;SDS011;2595;53.584;10.084;2023-03-03T00:37:57;32.60;;;16.03;;
5153;SDS011;2595;53.584;10.084;2023-03-03T00:43:01;24.47;;;15.83;;
5153;SDS011;2595;53.584;10.084;2023-03-03T00:48:27;38.20;;;16.40;;
5153;SDS011;2595;53.584;10.084;2023-03-03T00:53:53;35.70;;;16.00;;
5153;SDS011;2595;53.584;10.084;2023-03-03T00:56:18;26.67;;;17.07;;
5153;SDS011;2595;53.584;10.084;2023-03-03T00:58:44;25.90;;;15.37;;
5153;SDS011;2595;53.584;10.084;2023-03-03T01:01:11;23.17;;;16.10;;
5153;SDS011;2595;53.584;10.084;2023-03-03T01:03:38;29.33;;;18.23;;
5153;SDS011;2595;53.584;10.084;2023-03-03T01:06:03;22.50;;;15.80;;
5153;SDS011;2595;53.584;10.084;2023-03-03T01:08:29;28.30;;;17.73;;
5153;SDS011;2595;53.584;10.084;2023-03-03T01:10:56;28.50;;;15.77;;
5153;SDS011;2595;53.584;10.084;2023-03-03T01:13:27;27.27;;;18.60;;
5153;SDS011;2595;53.584;10.084;2023-03-03T01:15:55;27.27;;;16.13;;
5153;SDS011;2595;53.584;10.084;2023-03-03T01:18:22;21.40;;;14.10;;
5153;SDS011;2595;53.584;10.084;2023-03-03T01:20:48;25.70;;;16.00;;
5153;SDS011;2595;53.584;10.084;2023-03-03T01:23:13;23.43;;;15.67;;
5153;SDS011;2595;53.584;10.084;2023-03-03T01:25:39;32.60;;;18.00;;
5153;SDS011;2595;53.584;10.084;2023-03-03T01:28:04;30.73;;;18.03;;
5153;SDS011;2595;53.584;10.084;2023-03-03T01:30:30;24.00;;;16.13;;
5153;SDS011;2595;53.584;10.084;2023-03-03T01:32:56;26.47;;;17.53;;
5153;SDS011;2595;53.584;10.084;2023-03-03T01:35:22;21.70;;;14.90;;
5153;SDS011;2595;53.584;10.084;2023-03-03T01:37:48;24.50;;;16.63;;
5153;SDS011;2595;53.584;10.084;2023-03-03T01:40:15;25.27;;;15.63;;
5153;SDS011;2595;53.584;10.084;2023-03-03T01:42:46;20.20;;;14.73;;
5153;SDS011;2595;53.584;10.084;2023-03-03T01:48:04;26.50;;;17.20;;
5153;SDS011;2595;53.584;10.084;2023-03-03T01:50:41;25.93;;;15.70;;
5153;SDS011;2595;53.584;10.084;2023-03-03T01:53:12;19.20;;;15.20;;
5153;SDS011;2595;53.584;10.084;2023-03-03T01:55:42;23.57;;;16.80;;
5153;SDS011;2595;53.584;10.084;2023-03-03T01:58:12;24.17;;;15.20;;
5153;SDS011;2595;53.584;10.084;2023-03-03T02:00:41;26.70;;;16.93;;
5153;SDS011;2595;53.584;10.084;2023-03-03T02:03:10;24.93;;;16.00;;
5153;SDS011;2595;53.584;10.084;2023-03-03T02:05:35;19.33;;;14.77;;
5153;SDS011;2595;53.584;10.084;2023-03-03T02:08:02;23.07;;;16.47;;
5153;SDS011;2595;53.584;10.084;2023-03-03T02:10:29;23.33;;;15.63;;
5153;SDS011;2595;53.584;10.084;2023-03-03T02:12:55;20.60;;;16.53;;
5153;SDS011;2595;53.584;10.084;2023-03-03T02:15:29;28.97;;;17.03;;
5153;SDS011;2595;53.584;10.084;2023-03-03T02:18:01;25.20;;;16.10;;
5153;SDS011;2595;53.584;10.084;2023-03-03T02:20:32;25.73;;;15.80;;
5153;SDS011;2595;53.584;10.084;2023-03-03T02:25:52;22.67;;;15.80;;
5153;SDS011;2595;53.584;10.084;2023-03-03T02:28:23;23.10;;;15.63;;
5153;SDS011;2595;53.584;10.084;2023-03-03T02:30:55;22.37;;;16.27;;
5153;SDS011;2595;53.584;10.084;2023-03-03T02:33:21;22.07;;;15.57;;
5153;SDS011;2595;53.584;10.084;2023-03-03T02:35:47;23.47;;;15.50;;
5153;SDS011;2595;53.584;10.084;2023-03-03T02:38:16;22.97;;;15.50;;
5153;SDS011;2595;53.584;10.084;2023-03-03T02:40:56;24.93;;;16.77;;
5153;SDS011;2595;53.584;10.084;2023-03-03T02:43:29;25.00;;;15.57;;
5153;SDS011;2595;53.584;10.084;2023-03-03T02:46:14;22.67;;;14.97;;
5153;SDS011;2595;53.584;10.084;2023-03-03T02:48:40;19.63;;;14.13;;
5153;SDS011;2595;53.584;10.084;2023-03-03T02:51:05;20.43;;;15.00;;
5153;SDS011;2595;53.584;10.084;2023-03-03T02:53:31;19.30;;;14.47;;
5153;SDS011;2595;53.584;10.084;2023-03-03T02:55:59;21.70;;;14.80;;
5153;SDS011;2595;53.584;10.084;2023-03-03T02:58:25;19.03;;;14.00;;
5153;SDS011;2595;53.584;10.084;2023-03-03T03:00:50;25.23;;;14.20;;
5153;SDS011;2595;53.584;10.084;2023-03-03T03:03:16;21.60;;;14.80;;
5153;SDS011;2595;53.584;10.084;2023-03-03T03:05:41;17.60;;;13.37;;
5153;SDS011;2595;53.584;10.084;2023-03-03T03:08:07;19.33;;;14.13;;
5153;SDS011;2595;53.584;10.084;2023-03-03T03:10:34;20.83;;;15.00;;
5153;SDS011;2595;53.584;10.084;2023-03-03T03:13:00;20.20;;;13.67;;
5153;SDS011;2595;53.584;10.084;2023-03-03T03:15:26;21.90;;;15.50;;
5153;SDS011;2595;53.584;10.084;2023-03-03T03:17:51;20.53;;;14.57;;
5153;SDS011;2595;53.584;10.084;2023-03-03T03:20:17;21.33;;;14.90;;
5153;SDS011;2595;53.584;10.084;2023-03-03T03:22:42;17.03;;;14.10;;
5153;SDS011;2595;53.584;10.084;2023-03-03T03:25:08;15.80;;;13.23;;
5153;SDS011;2595;53.584;10.084;2023-03-03T03:27:34;17.63;;;13.17;;
5153;SDS011;2595;53.584;10.084;2023-03-03T03:30:00;15.70;;;12.90;;
5153;SDS011;2595;53.584;10.084;2023-03-03T03:32:25;17.83;;;13.10;;
5153;SDS011;2595;53.584;10.084;2023-03-03T03:34:51;15.00;;;12.90;;
5153;SDS011;2595;53.584;10.084;2023-03-03T03:37:17;23.13;;;13.03;;
5153;SDS011;2595;53.584;10.084;2023-03-03T03:39:42;20.43;;;13.50;;
5153;SDS011;2595;53.584;10.084;2023-03-03T03:42:08;19.33;;;12.73;;
5153;SDS011;2595;53.584;10.084;2023-03-03T03:44:34;13.63;;;12.30;;
5153;SDS011;2595;53.584;10.084;2023-03-03T03:46:59;13.70;;;11.63;;
5153;SDS011;2595;53.584;10.084;2023-03-03T03:49:25;15.10;;;12.83;;
5153;SDS011;2595;53.584;10.084;2023-03-03T03:51:50;18.00;;;12.87;;
5153;SDS011;2595;53.584;10.084;2023-03-03T03:54:16;16.77;;;14.30;;
5153;SDS011;2595;53.584;10.084;2023-03-03T03:56:42;14.10;;;12.43;;
5153;SDS011;2595;53.584;10.084;2023-03-03T03:59:07;17.40;;;13.33;;
5153;SDS011;2595;53.584;10.084;2023-03-03T04:01:33;17.60;;;13.67;;
5153;SDS011;2595;53.584;10.084;2023-03-03T04:03:58;20.10;;;14.40;;
5153;SDS011;2595;53.584;10.084;2023-03-03T04:06:24;18.50;;;14.17;;
5153;SDS011;2595;53.584;10.084;2023-03-03T04:08:50;13.73;;;12.17;;
5153;SDS011;2595;53.584;10.084;2023-03-03T04:11:15;18.13;;;14.37;;
5153;SDS011;2595;53.584;10.084;2023-03-03T04:13:42;13.50;;;11.80;;
5153;SDS011;2595;53.584;10.084;2023-03-03T04:16:08;17.73;;;13.33;;
5153;SDS011;2595;53.584;10.084;2023-03-03T04:18:33;14.63;;;12.03;;
5153;SDS011;2595;53.584;10.084;2023-03-03T04:20:59;16.73;;;13.27;;
5153;SDS011;2595;53.584;10.084;2023-03-03T04:23:24;15.47;;;12.80;;
5153;SDS011;2595;53.584;10.084;2023-03-03T04:25:50;16.73;;;14.40;;
5153;SDS011;2595;53.584;10.084;2023-03-03T04:28:15;17.03;;;13.40;;
5153;SDS011;2595;53.584;10.084;2023-03-03T04:30:42;16.23;;;11.77;;
5153;SDS011;2595;53.584;10.084;2023-03-03T04:33:07;14.03;;;12.13;;
5153;SDS011;2595;53.584;10.084;2023-03-03T04:35:33;19.30;;;13.13;;
5153;SDS011;2595;53.584;10.084;2023-03-03T04:37:59;19.23;;;14.17;;
5153;SDS011;2595;53.584;10.084;2023-03-03T04:40:25;17.33;;;12.67;;
5153;SDS011;2595;53.584;10.084;2023-03-03T04:42:51;19.83;;;13.83;;
5153;SDS011;2595;53.584;10.084;2023-03-03T04:45:16;19.57;;;14.50;;
5153;SDS011;2595;53.584;10.084;2023-03-03T04:47:42;17.90;;;14.37;;
5153;SDS011;2595;53.584;10.084;2023-03-03T04:50:09;17.07;;;14.17;;
5153;SDS011;2595;53.584;10.084;2023-03-03T04:52:36;19.40;;;13.67;;
5153;SDS011;2595;53.584;10.084;2023-03-03T04:55:02;22.80;;;14.17;;
5153;SDS011;2595;53.584;10.084;2023-03-03T04:57:29;15.83;;;13.30;;
5153;SDS011;2595;53.584;10.084;2023-03-03T04:59:54;16.73;;;14.03;;
5153;SDS011;2595;53.584;10.084;2023-03-03T05:02:20;18.70;;;12.93;;
5153;SDS011;2595;53.584;10.084;2023-03-03T05:04:45;15.00;;;11.30;;
5153;SDS011;2595;53.584;10.084;2023-03-03T05:07:11;15.70;;;12.90;;
5153;SDS011;2595;53.584;10.084;2023-03-03T05:09:37;16.50;;;11.97;;
5153;SDS011;2595;53.584;10.084;2023-03-03T05:12:02;16.63;;;13.03;;
5153;SDS011;2595;53.584;10.084;2023-03-03T05:14:28;20.07;;;13.60;;
5153;SDS011;2595;53.584;10.084;2023-03-03T05:16:55;20.63;;;12.87;;
5153;SDS011;2595;53.584;10.084;2023-03-03T05:19:21;17.97;;;13.40;;
5153;SDS011;2595;53.584;10.084;2023-03-03T05:21:48;17.67;;;12.80;;
5153;SDS011;2595;53.584;10.084;2023-03-03T05:24:13;20.10;;;13.30;;
5153;SDS011;2595;53.584;10.084;2023-03-03T05:26:39;18.77;;;13.90;;
5153;SDS011;2595;53.584;10.084;2023-03-03T05:29:05;14.20;;;12.20;;
5153;SDS011;2595;53.584;10.084;2023-03-03T05:31:36;16.13;;;11.80;;
5153;SDS011;2595;53.584;10.084;2023-03-03T05:34:05;13.40;;;12.00;;
5153;SDS011;2595;53.584;10.084;2023-03-03T05:36:30;15.10;;;12.50;;
5153;SDS011;2595;53.584;10.084;2023-03-03T05:38:56;13.17;;;11.77;;
5153;SDS011;2595;53.584;10.084;2023-03-03T05:41:22;16.07;;;11.77;;
5153;SDS011;2595;53.584;10.084;2023-03-03T05:43:47;17.00;;;12.33;;
5153;SDS011;2595;53.584;10.084;2023-03-03T05:46:13;14.40;;;11.70;;
5153;SDS011;2595;53.584;10.084;2023-03-03T05:48:39;13.57;;;12.17;;
5153;SDS011;2595;53.584;10.084;2023-03-03T05:51:04;17.87;;;12.40;;
5153;SDS011;2595;53.584;10.084;2023-03-03T05:53:30;17.70;;;12.83;;
5153;SDS011;2595;53.584;10.084;2023-03-03T05:55:55;14.47;;;11.47;;
5153;SDS011;2595;53.584;10.084;2023-03-03T05:58:22;15.00;;;11.10;;
5153;SDS011;2595;53.584;10.084;2023-03-03T06:00:47;11.97;;;10.77;;
5153;SDS011;2595;53.584;10.084;2023-03-03T06:03:13;18.93;;;12.43;;
5153;SDS011;2595;53.584;10.084;2023-03-03T06:05:38;14.27;;;12.27;;
5153;SDS011;2595;53.584;10.084;2023-03-03T06:08:04;14.60;;;11.43;;
5153;SDS011;2595;53.584;10.084;2023-03-03T06:10:29;19.60;;;12.70;;
5153;SDS011;2595;53.584;10.084;2023-03-03T06:12:55;15.23;;;12.67;;
5153;SDS011;2595;53.584;10.084;2023-03-03T06:15:22;13.90;;;12.40;;
5153;SDS011;2595;53.584;10.084;2023-03-03T06:17:48;16.00;;;12.30;;
5153;SDS011;2595;53.584;10.084;2023-03-03T06:20:14;16.63;;;12.10;;
5153;SDS011;2595;53.584;10.084;2023-03-03T06:22:39;14.00;;;11.70;;
5153;SDS011;2595;53.584;10.084;2023-03-03T06:25:05;17.77;;;12.40;;
5153;SDS011;2595;53.584;10.084;2023-03-03T06:27:31;13.40;;;10.97;;
5153;SDS011;2595;53.584;10.084;2023-03-03T06:29:56;17.97;;;12.27;;
5153;SDS011;2595;53.584;10.084;2023-03-03T06:32:22;13.53;;;11.60;;
5153;SDS011;2595;53.584;10.084;2023-03-03T06:34:48;15.53;;;12.70;;
5153;SDS011;2595;53.584;10.084;2023-03-03T06:37:13;16.83;;;13.80;;
5153;SDS011;2595;53.584;10.084;2023-03-03T06:39:39;14.37;;;10.40;;
5153;SDS011;2595;53.584;10.084;2023-03-03T06:42:05;16.20;;;12.37;;
5153;SDS011;2595;53.584;10.084;2023-03-03T06:44:31;12.33;;;10.90;;
5153;SDS011;2595;53.584;10.084;2023-03-03T06:46:56;16.57;;;11.93;;
5153;SDS011;2595;53.584;10.084;2023-03-03T06:49:22;16.30;;;12.37;;
5153;SDS011;2595;53.584;10.084;2023-03-03T06:51:48;16.00;;;11.10;;
5153;SDS011;2595;53.584;10.084;2023-03-03T06:54:16;12.70;;;11.33;;
5153;SDS011;2595;53.584;10.084;2023-03-03T06:56:44;17.07;;;12.37;;
5153;SDS011;2595;53.584;10.084;2023-03-03T07:01:37;16.60;;;11.03;;
5153;SDS011;2595;53.584;10.084;2023-03-03T07:04:37;12.67;;;10.27;;
5153;SDS011;2595;53.584;10.084;2023-03-03T07:06:58;12.13;;;10.77;;
5153;SDS011;2595;53.584;10.084;2023-03-03T07:09:35;16.23;;;11.73;;
5153;SDS011;2595;53.584;10.084;2023-03-03T07:12:01;11.73;;;10.50;;
5153;SDS011;2595;53.584;10.084;2023-03-03T07:14:34;11.17;;;10.07;;
5153;SDS011;2595;53.584;10.084;2023-03-03T07:17:12;12.67;;;10.60;;
5153;SDS011;2595;53.584;10.084;2023-03-03T07:19:40;14.87;;;10.70;;
5153;SDS011;2595;53.584;10.084;2023-03-03T07:22:14;15.53;;;9.93;;
5153;SDS011;2595;53.584;10.084;2023-03-03T07:24:42;13.30;;;11.20;;
5153;SDS011;2595;53.584;10.084;2023-03-03T07:27:11;14.13;;;10.53;;
5153;SDS011;2595;53.584;10.084;2023-03-03T07:29:49;11.87;;;10.60;;
5153;SDS011;2595;53.584;10.084;2023-03-03T07:32:26;11.57;;;9.13;;
5153;SDS011;2595;53.584;10.084;2023-03-03T07:34:53;11.33;;;10.20;;
5153;SDS011;2595;53.584;10.084;2023-03-03T07:37:41;14.80;;;10.80;;
5153;SDS011;2595;53.584;10.084;2023-03-03T07:40:49;10.10;;;9.20;;
5153;SDS011;2595;53.584;10.084;2023-03-03T07:42:58;10.83;;;9.83;;
5153;SDS011;2595;53.584;10.084;2023-03-03T07:45:34;12.57;;;10.17;;
5153;SDS011;2595;53.584;10.084;2023-03-03T07:48:08;9.53;;;8.50;;
5153;SDS011;2595;53.584;10.084;2023-03-03T07:51:00;9.87;;;9.07;;
5153;SDS011;2595;53.584;10.084;2023-03-03T07:53:35;13.47;;;10.93;;
5153;SDS011;2595;53.584;10.084;2023-03-03T07:56:02;10.47;;;9.33;;
5153;SDS011;2595;53.584;10.084;2023-03-03T07:58:41;9.97;;;8.90;;
5153;SDS011;2595;53.584;10.084;2023-03-03T08:04:16;10.30;;;9.23;;
5153;SDS011;2595;53.584;10.084;2023-03-03T08:06:47;9.73;;;8.70;;
5153;SDS011;2595;53.584;10.084;2023-03-03T08:11:54;13.10;;;10.60;;
5153;SDS011;2595;53.584;10.084;2023-03-03T08:14:35;10.13;;;9.13;;
5153;SDS011;2595;53.584;10.084;2023-03-03T08:17:21;11.87;;;10.63;;
5153;SDS011;2595;53.584;10.084;2023-03-03T08:19:49;15.73;;;9.70;;
5153;SDS011;2595;53.584;10.084;2023-03-03T08:22:22;12.20;;;9.87;;
5153;SDS011;2595;53.584;10.084;2023-03-03T08:24:54;11.87;;;10.77;;
5153;SDS011;2595;53.584;10.084;2023-03-03T08:27:20;11.10;;;9.90;;
5153;SDS011;2595;53.584;10.084;2023-03-03T08:29:45;13.47;;;10.90;;
5153;SDS011;2595;53.584;10.084;2023-03-03T08:32:11;11.57;;;10.40;;
5153;SDS011;2595;53.584;10.084;2023-03-03T08:34:37;13.70;;;10.87;;
5153;SDS011;2595;53.584;10.084;2023-03-03T08:37:02;11.27;;;9.37;;
5153;SDS011;2595;53.584;10.084;2023-03-03T08:39:28;9.90;;;8.43;;
5153;SDS011;2595;53.584;10.084;2023-03-03T08:41:53;15.07;;;11.20;;
5153;SDS011;2595;53.584;10.084;2023-03-03T08:44:19;10.80;;;9.70;;
5153;SDS011;2595;53.584;10.084;2023-03-03T08:46:44;13.73;;;11.50;;
5153;SDS011;2595;53.584;10.084;2023-03-03T08:49:10;18.90;;;12.40;;
5153;SDS011;2595;53.584;10.084;2023-03-03T08:51:36;22.53;;;10.90;;
5153;SDS011;2595;53.584;10.084;2023-03-03T08:54:01;11.00;;;9.90;;
5153;SDS011;2595;53.584;10.084;2023-03-03T08:56:27;16.53;;;11.00;;
5153;SDS011;2595;53.584;10.084;2023-03-03T08:58:52;49.50;;;15.80;;
5153;SDS011;2595;53.584;10.084;2023-03-03T09:01:18;13.57;;;10.57;;
5153;SDS011;2595;53.584;10.084;2023-03-03T09:03:43;12.83;;;10.90;;
5153;SDS011;2595;53.584;10.084;2023-03-03T09:06:10;18.57;;;10.80;;
5153;SDS011;2595;53.584;10.084;2023-03-03T09:08:36;13.37;;;10.23;;
5153;SDS011;2595;53.584;10.084;2023-03-03T09:11:02;11.20;;;9.53;;
5153;SDS011;2595;53.584;10.084;2023-03-03T09:13:33;15.37;;;9.97;;
5153;SDS011;2595;53.584;10.084;2023-03-03T09:15:58;9.83;;;8.93;;
5153;SDS011;2595;53.584;10.084;2023-03-03T09:18:27;10.27;;;9.30;;
5153;SDS011;2595;53.584;10.084;2023-03-03T09:20:55;10.03;;;9.03;;
5153;SDS011;2595;53.584;10.084;2023-03-03T09:25:58;12.67;;;10.27;;
5153;SDS011;2595;53.584;10.084;2023-03-03T09:28:35;14.40;;;9.77;;
5153;SDS011;2595;53.584;10.084;2023-03-03T09:31:02;10.90;;;9.83;;
5153;SDS011;2595;53.584;10.084;2023-03-03T09:33:42;10.87;;;9.87;;
5153;SDS011;2595;53.584;10.084;2023-03-03T09:36:25;8.97;;;8.13;;
5153;SDS011;2595;53.584;10.084;2023-03-03T09:38:59;9.10;;;7.70;;
5153;SDS011;2595;53.584;10.084;2023-03-03T09:46:53;9.37;;;8.63;;
5153;SDS011;2595;53.584;10.084;2023-03-03T09:49:42;8.70;;;8.00;;
5153;SDS011;2595;53.584;10.084;2023-03-03T10:15:24;16.67;;;11.47;;
5153;SDS011;2595;53.584;10.084;2023-03-03T10:25:41;13.80;;;11.57;;
5153;SDS011;2595;53.584;10.084;2023-03-03T10:39:16;28.30;;;14.00;;
5153;SDS011;2595;53.584;10.084;2023-03-03T10:42:06;20.03;;;11.90;;
5153;SDS011;2595;53.584;10.084;2023-03-03T10:47:29;21.97;;;12.20;;
5153;SDS011;2595;53.584;10.084;2023-03-03T10:59:55;21.43;;;12.87;;
5153;SDS011;2595;53.584;10.084;2023-03-03T11:01:48;20.07;;;12.67;;
5153;SDS011;2595;53.584;10.084;2023-03-03T11:04:44;17.47;;;12.03;;
5153;SDS011;2595;53.584;10.084;2023-03-03T11:12:29;11.37;;;9.37;;
5153;SDS011;2595;53.584;10.084;2023-03-03T11:15:33;13.43;;;9.87;;
5153;SDS011;2595;53.584;10.084;2023-03-03T11:21:22;16.33;;;12.53;;
5153;SDS011;2595;53.584;10.084;2023-03-03T11:32:26;18.70;;;12.13;;
5153;SDS011;2595;53.584;10.084;2023-03-03T11:40:56;25.77;;;13.50;;
5153;SDS011;2595;53.584;10.084;2023-03-03T11:45:38;24.70;;;14.43;;
5153;SDS011;2595;53.584;10.084;2023-03-03T11:48:17;17.90;;;13.77;;
5153;SDS011;2595;53.584;10.084;2023-03-03T11:53:52;21.70;;;14.20;;
5153;SDS011;2595;53.584;10.084;2023-03-03T12:10:31;15.10;;;13.07;;
5153;SDS011;2595;53.584;10.084;2023-03-03T12:13:23;12.93;;;10.90;;
5153;SDS011;2595;53.584;10.084;2023-03-03T12:16:17;13.87;;;12.17;;
5153;SDS011;2595;53.584;10.084;2023-03-03T12:19:02;21.87;;;12.70;;
5153;SDS011;2595;53.584;10.084;2023-03-03T12:35:28;16.80;;;10.57;;
5153;SDS011;2595;53.584;10.084;2023-03-03T12:40:58;12.70;;;9.83;;
5153;SDS011;2595;53.584;10.084;2023-03-03T12:46:39;16.90;;;9.67;;
5153;SDS011;2595;53.584;10.084;2023-03-03T12:49:01;10.60;;;9.50;;
5153;SDS011;2595;53.584;10.084;2023-03-03T12:51:30;14.73;;;9.57;;
5153;SDS011;2595;53.584;10.084;2023-03-03T12:54:08;10.07;;;8.20;;
5153;SDS011;2595;53.584;10.084;2023-03-03T12:56:52;9.37;;;8.03;;
5153;SDS011;2595;53.584;10.084;2023-03-03T12:59:32;8.67;;;7.87;;
5153;SDS011;2595;53.584;10.084;2023-03-03T13:04:44;12.80;;;8.27;;
5153;SDS011;2595;53.584;10.084;2023-03-03T13:07:24;11.17;;;8.40;;
5153;SDS011;2595;53.584;10.084;2023-03-03T13:10:07;9.60;;;8.10;;
5153;SDS011;2595;53.584;10.084;2023-03-03T13:20:44;5.27;;;4.80;;
5153;SDS011;2595;53.584;10.084;2023-03-03T13:23:29;8.90;;;5.37;;
5153;SDS011;2595;53.584;10.084;2023-03-03T13:26:05;6.80;;;4.93;;
5153;SDS011;2595;53.584;10.084;2023-03-03T13:28:53;5.17;;;4.77;;
5153;SDS011;2595;53.584;10.084;2023-03-03T13:31:33;5.33;;;4.93;;
5153;SDS011;2595;53.584;10.084;2023-03-03T13:34:03;3.60;;;3.40;;
5153;SDS011;2595;53.584;10.084;2023-03-03T13:36:32;3.83;;;3.43;;
5153;SDS011;2595;53.584;10.084;2023-03-03T13:39:11;6.03;;;4.73;;
5153;SDS011;2595;53.584;10.084;2023-03-03T13:41:58;5.50;;;2.90;;
5153;SDS011;2595;53.584;10.084;2023-03-03T13:47:01;3.03;;;2.83;;
5153;SDS011;2595;53.584;10.084;2023-03-03T13:52:28;4.73;;;2.73;;
5153;SDS011;2595;53.584;10.084;2023-03-03T13:55:04;5.10;;;2.60;;
5153;SDS011;2595;53.584;10.084;2023-03-03T13:57:44;5.53;;;2.17;;
5153;SDS011;2595;53.584;10.084;2023-03-03T14:05:51;2.00;;;1.73;;
5153;SDS011;2595;53.584;10.084;2023-03-03T14:08:25;4.13;;;1.70;;
5153;SDS011;2595;53.584;10.084;2023-03-03T14:11:22;2.60;;;2.03;;
5153;SDS011;2595;53.584;10.084;2023-03-03T14:14:21;2.03;;;1.93;;
5153;SDS011;2595;53.584;10.084;2023-03-03T14:17:16;3.07;;;1.60;;
5153;SDS011;2595;53.584;10.084;2023-03-03T14:25:18;2.50;;;1.77;;
5153;SDS011;2595;53.584;10.084;2023-03-03T14:30:24;1.50;;;1.30;;
5153;SDS011;2595;53.584;10.084;2023-03-03T14:38:51;1.47;;;1.37;;
5153;SDS011;2595;53.584;10.084;2023-03-03T14:43:36;4.00;;;1.50;;
5153;SDS011;2595;53.584;10.084;2023-03-03T14:46:37;4.50;;;1.50;;
5153;SDS011;2595;53.584;10.084;2023-03-03T14:49:14;4.73;;;1.33;;
5153;SDS011;2595;53.584;10.084;2023-03-03T14:51:56;3.73;;;3.10;;
5153;SDS011;2595;53.584;10.084;2023-03-03T14:54:47;4.87;;;1.60;;
5153;SDS011;2595;53.584;10.084;2023-03-03T14:57:15;2.47;;;2.27;;
5153;SDS011;2595;53.584;10.084;2023-03-03T14:59:59;1.90;;;1.80;;
5153;SDS011;2595;53.584;10.084;2023-03-03T15:05:26;2.33;;;1.80;;
5153;SDS011;2595;53.584;10.084;2023-03-03T15:13:12;3.37;;;1.27;;
5153;SDS011;2595;53.584;10.084;2023-03-03T15:16:01;2.10;;;2.00;;
5153;SDS011;2595;53.584;10.084;2023-03-03T15:18:54;7.13;;;1.10;;
5153;SDS011;2595;53.584;10.084;2023-03-03T15:21:29;1.50;;;1.40;;
5153;SDS011;2595;53.584;10.084;2023-03-03T15:26:49;4.90;;;1.57;;
5153;SDS011;2595;53.584;10.084;2023-03-03T15:36:59;4.03;;;1.60;;
5153;SDS011;2595;53.584;10.084;2023-03-03T15:47:53;6.83;;;1.83;;
5153;SDS011;2595;53.584;10.084;2023-03-03T15:50:29;4.60;;;2.10;;
5153;SDS011;2595;53.584;10.084;2023-03-03T15:56:05;3.57;;;2.17;;
5153;SDS011;2595;53.584;10.084;2023-03-03T15:58:57;2.13;;;1.77;;
5153;SDS011;2595;53.584;10.084;2023-03-03T16:01:33;2.77;;;1.93;;
5153;SDS011;2595;53.584;10.084;2023-03-03T16:04:05;10.53;;;2.97;;
5153;SDS011;2595;53.584;10.084;2023-03-03T16:06:44;3.10;;;2.03;;
5153;SDS011;2595;53.584;10.084;2023-03-03T16:14:48;5.83;;;1.90;;
5153;SDS011;2595;53.584;10.084;2023-03-03T16:23:12;7.00;;;2.37;;
5153;SDS011;2595;53.584;10.084;2023-03-03T16:33:22;6.20;;;2.73;;
5153;SDS011;2595;53.584;10.084;2023-03-03T16:38:44;6.27;;;2.30;;
5153;SDS011;2595;53.584;10.084;2023-03-03T16:41:36;10.87;;;2.10;;
5153;SDS011;2595;53.584;10.084;2023-03-03T16:46:46;3.73;;;2.30;;
5153;SDS011;2595;53.584;10.084;2023-03-03T16:52:00;5.97;;;2.97;;
5153;SDS011;2595;53.584;10.084;2023-03-03T16:57:26;3.90;;;2.27;;
5153;SDS011;2595;53.584;10.084;2023-03-03T17:03:33;10.50;;;3.23;;
5153;SDS011;2595;53.584;10.084;2023-03-03T17:06:41;7.67;;;2.10;;
5153;SDS011;2595;53.584;10.084;2023-03-03T17:09:00;15.30;;;3.33;;
5153;SDS011;2595;53.584;10.084;2023-03-03T17:17:06;10.77;;;2.33;;
5153;SDS011;2595;53.584;10.084;2023-03-03T17:19:52;10.47;;;2.73;;
5153;SDS011;2595;53.584;10.084;2023-03-03T17:22:45;8.20;;;2.87;;
5153;SDS011;2595;53.584;10.084;2023-03-03T17:25:45;9.20;;;3.33;;
5153;SDS011;2595;53.584;10.084;2023-03-03T17:28:35;13.00;;;2.90;;
5153;SDS011;2595;53.584;10.084;2023-03-03T17:33:56;10.53;;;2.50;;
5153;SDS011;2595;53.584;10.084;2023-03-03T17:36:26;8.83;;;3.43;;
5153;SDS011;2595;53.584;10.084;2023-03-03T17:42:08;12.87;;;3.13;;
5153;SDS011;2595;53.584;10.084;2023-03-03T17:44:45;3.83;;;2.90;;
5153;SDS011;2595;53.584;10.084;2023-03-03T17:56:07;4.87;;;2.60;;
5153;SDS011;2595;53.584;10.084;2023-03-03T18:27:41;17.13;;;3.30;;
5153;SDS011;2595;53.584;10.084;2023-03-03T18:30:12;9.10;;;2.83;;
5153;SDS011;2595;53.584;10.084;2023-03-03T18:43:50;8.47;;;3.03;;
5153;SDS011;2595;53.584;10.084;2023-03-03T18:49:05;12.93;;;2.80;;
5153;SDS011;2595;53.584;10.084;2023-03-03T19:02:06;18.03;;;3.63;;
5153;SDS011;2595;53.584;10.084;2023-03-03T19:04:43;9.20;;;3.80;;
5153;SDS011;2595;53.584;10.084;2023-03-03T19:10:03;7.80;;;3.33;;
5153;SDS011;2595;53.584;10.084;2023-03-03T19:12:51;12.30;;;3.87;;
5153;SDS011;2595;53.584;10.084;2023-03-03T19:15:40;13.17;;;2.90;;
5153;SDS011;2595;53.584;10.084;2023-03-03T19:18:18;10.60;;;3.00;;
5153;SDS011;2595;53.584;10.084;2023-03-03T19:20:48;15.60;;;4.30;;
5153;SDS011;2595;53.584;10.084;2023-03-03T19:29:02;11.73;;;3.43;;
5153;SDS011;2595;53.584;10.084;2023-03-03T19:34:18;27.43;;;6.40;;
5153;SDS011;2595;53.584;10.084;2023-03-03T19:37:07;12.43;;;3.30;;
5153;SDS011;2595;53.584;10.084;2023-03-03T19:42:32;17.67;;;4.77;;
5153;SDS011;2595;53.584;10.084;2023-03-03T19:48:12;13.07;;;4.17;;
5153;SDS011;2595;53.584;10.084;2023-03-03T19:54:02;8.47;;;2.93;;
5153;SDS011;2595;53.584;10.084;2023-03-03T19:56:51;7.77;;;4.23;;
5153;SDS011;2595;53.584;10.084;2023-03-03T20:05:18;5.47;;;2.97;;
5153;SDS011;2595;53.584;10.084;2023-03-03T20:21:56;13.17;;;3.73;;
5153;SDS011;2595;53.584;10.084;2023-03-03T20:32:25;16.90;;;3.70;;
5153;SDS011;2595;53.584;10.084;2023-03-03T20:35:23;11.10;;;4.50;;
5153;SDS011;2595;53.584;10.084;2023-03-03T20:41:07;22.20;;;5.03;;
5153;SDS011;2595;53.584;10.084;2023-03-03T20:46:58;16.03;;;5.07;;
5153;SDS011;2595;53.584;10.084;2023-03-03T20:52:43;16.77;;;3.80;;
5153;SDS011;2595;53.584;10.084;2023-03-03T21:00:45;10.63;;;4.00;;
5153;SDS011;2595;53.584;10.084;2023-03-03T21:03:34;19.53;;;6.13;;
5153;SDS011;2595;53.584;10.084;2023-03-03T21:06:07;13.50;;;4.30;;
5153;SDS011;2595;53.584;10.084;2023-03-03T21:08:53;12.83;;;3.80;;
5153;SDS011;2595;53.584;10.084;2023-03-03T21:13:55;12.80;;;4.00;;
5153;SDS011;2595;53.584;10.084;2023-03-03T21:21:27;11.87;;;4.23;;
5153;SDS011;2595;53.584;10.084;2023-03-03T21:23:54;14.93;;;4.90;;
5153;SDS011;2595;53.584;10.084;2023-03-03T21:29:17;8.47;;;3.97;;
5153;SDS011;2595;53.584;10.084;2023-03-03T21:32:03;15.17;;;3.93;;
5153;SDS011;2595;53.584;10.084;2023-03-03T21:34:31;11.57;;;3.67;;
5153;SDS011;2595;53.584;10.084;2023-03-03T21:37:03;7.23;;;3.00;;
5153;SDS011;2595;53.584;10.084;2023-03-03T21:39:32;14.17;;;3.37;;
5153;SDS011;2595;53.584;10.084;2023-03-03T21:42:00;10.90;;;3.40;;
5153;SDS011;2595;53.584;10.084;2023-03-03T21:47:14;8.63;;;3.57;;
5153;SDS011;2595;53.584;10.084;2023-03-03T21:49:42;11.17;;;3.03;;
5153;SDS011;2595;53.584;10.084;2023-03-03T21:52:09;20.67;;;5.70;;